Thedford, Canada
Current Conditions -  °F | °C
As of 3:00 AM on Thursday 27 Nov 2014 (Local Time) from CYZR Reporting Station
Overcast Overcast  
Wind Chill: 23°   Ceiling: 5500
Heat Index: 30°   Visibility: 9mi
Dew Point: 27°   Wind: 7mph
Humidity: 86%   Direction: 300°WNW
Pressure: 30.07"   Gusts: NA
Location:  43.17°N, 81.85°W
Report Text: CYZR 270800Z AUTO 30006KT 9SM FEW014 OVC055 M01/M03 A3007 RMK SLP190
Loading
Personal Weather Stations






























Interactive Weather Map New forecast layout! Learn more

10-Day Weather Forecast

Advertisements
Track Severe Weather on mobile